Terminal Aerodrome Forecast
Issued by NWS Pueblo, CO

Home | Current Version | Previous Version | Text Only | Print | Product List | Glossary On
Versions: 1 2 3 4 5 6 7 8 9 10 11 12 13 14 15 16 17 18 19 20 21 22 23 24 25 26 27 28 29 30
000
FTUS45 KPUB 020539
TAFALS
TAF
KALS 020539Z 0206/0306 VRB05KT P6SM FEW100 BKN130
     FM021900 20010KT P6SM VCTS FEW040 SCT080CB BKN100
     FM030400 VRB06KT P6SM FEW040 SCT080 BKN100=

USA.gov is the U.S. government's official web portal to all federal, state and local government web resources and services.